Time;durP1;ratioP1;P1;durP2;ratioP2;P2;SDS_P1;SDS_P2;PMS_P1;PMS_P2;Temp;Humidity;BMP_temperature;BMP_pressure;BME280_temperature;BME280_humidity;BME280_pressure;Samples;Min_cycle;Max_cycle;Signal;HPM_P1;HPM_P2
2021/10/06 00:01:36;;;;;;;8.50;2.35;;;11.70;95.20;;;;;;5076521;28;20106;-76
2021/10/06 00:04:03;;;;;;;12.45;3.53;;;11.70;95.20;;;;;;5092639;28;20433;-75
2021/10/06 00:06:28;;;;;;;8.63;3.42;;;11.70;95.30;;;;;;5092753;28;20028;-76
2021/10/06 00:08:54;;;;;;;10.52;3.20;;;11.70;95.40;;;;;;5075943;28;20047;-77
2021/10/06 00:11:20;;;;;;;6.55;3.47;;;11.70;95.40;;;;;;5094037;28;20024;-76
2021/10/06 00:13:46;;;;;;;5.45;3.17;;;11.70;95.50;;;;;;5094462;28;20371;-76
2021/10/06 00:16:12;;;;;;;7.65;3.40;;;11.60;95.50;;;;;;5093089;28;20091;-75
2021/10/06 00:18:39;;;;;;;5.70;3.22;;;11.70;95.60;;;;;;5093087;28;20131;-76
2021/10/06 00:21:06;;;;;;;5.43;3.28;;;11.80;95.60;;;;;;5092735;28;20121;-76
2021/10/06 00:23:32;;;;;;;9.75;3.28;;;11.60;95.60;;;;;;5092722;28;20038;-76
2021/10/06 00:25:59;;;;;;;11.48;3.63;;;11.60;95.70;;;;;;5092201;28;20072;-75
2021/10/06 00:28:25;;;;;;;6.90;2.47;;;11.70;95.60;;;;;;5092562;28;20392;-75
2021/10/06 00:30:51;;;;;;;10.05;3.50;;;11.60;95.70;;;;;;5075911;28;20117;-75
2021/10/06 00:33:17;;;;;;;13.25;3.97;;;11.60;95.80;;;;;;5092314;28;20086;-76
2021/10/06 00:35:42;;;;;;;8.73;2.95;;;11.60;95.80;;;;;;5092410;28;20028;-75
2021/10/06 00:38:08;;;;;;;7.55;2.95;;;11.50;95.90;;;;;;5058912;28;20472;-74
2021/10/06 00:40:34;;;;;;;10.40;2.40;;;11.50;95.90;;;;;;5075622;28;20063;-75
2021/10/06 00:42:59;;;;;;;10.57;1.92;;;11.50;95.90;;;;;;5092864;28;20021;-75
2021/10/06 00:45:25;;;;;;;8.87;2.17;;;11.40;95.90;;;;;;5093921;28;20033;-76
2021/10/06 00:47:51;;;;;;;10.38;2.40;;;11.50;95.90;;;;;;5092453;28;20032;-75
2021/10/06 00:50:16;;;;;;;8.55;2.28;;;11.50;95.90;;;;;;5093609;28;20058;-76
2021/10/06 00:52:45;;;;;;;8.93;1.65;;;11.60;95.80;;;;;;5075987;28;20032;-76
2021/10/06 00:55:13;;;;;;;7.32;1.83;;;11.60;95.80;;;;;;5075395;28;20115;-76
2021/10/06 00:57:39;;;;;;;8.07;2.15;;;11.60;95.80;;;;;;5093642;28;20031;-76
2021/10/06 01:00:06;;;;;;;5.35;1.17;;;11.60;95.80;;;;;;5079452;28;20031;-77
2021/10/06 01:02:32;;;;;;;8.48;1.50;;;11.60;95.70;;;;;;5097732;28;20032;-76
2021/10/06 01:04:58;;;;;;;5.80;1.30;;;11.70;95.70;;;;;;5096999;28;20039;-80
2021/10/06 01:07:24;;;;;;;4.93;1.23;;;11.70;95.50;;;;;;5096257;28;20042;-80
2021/10/06 01:09:51;;;;;;;10.88;1.88;;;11.70;95.50;;;;;;5097550;28;20498;-82
2021/10/06 01:12:18;;;;;;;8.05;1.40;;;11.70;95.40;;;;;;5097480;28;20032;-80
2021/10/06 01:14:44;;;;;;;5.93;1.20;;;11.80;95.40;;;;;;5097470;28;20055;-80
2021/10/06 01:17:10;;;;;;;5.95;1.10;;;11.80;95.30;;;;;;5079643;28;20040;-76
2021/10/06 01:19:35;;;;;;;8.30;1.40;;;11.80;95.30;;;;;;5062450;28;20396;-75
2021/10/06 01:22:01;;;;;;;5.65;1.38;;;11.80;95.20;;;;;;5097657;28;20089;-76
2021/10/06 01:24:28;;;;;;;7.82;1.58;;;11.80;95.10;;;;;;5095894;28;20033;-76
2021/10/06 01:26:54;;;;;;;4.70;0.90;;;11.80;95.10;;;;;;5078719;28;20377;-76
2021/10/06 01:29:20;;;;;;;11.48;1.10;;;11.70;95.00;;;;;;5096080;28;20032;-76
2021/10/06 01:31:48;;;;;;;9.75;1.63;;;11.80;95.10;;;;;;5095744;28;20082;-79
2021/10/06 01:34:17;;;;;;;5.10;1.08;;;11.80;95.10;;;;;;5095563;28;20161;-79
2021/10/06 01:36:45;;;;;;;6.10;1.10;;;11.80;95.10;;;;;;5095603;28;20031;-81
2021/10/06 01:39:10;;;;;;;6.03;1.15;;;11.80;95.00;;;;;;5096772;28;20020;-77
2021/10/06 01:41:36;;;;;;;4.53;1.30;;;11.80;94.90;;;;;;5062257;28;20024;-77
2021/10/06 01:44:03;;;;;;;7.13;0.90;;;11.80;95.00;;;;;;5078785;28;20031;-79
2021/10/06 01:46:29;;;;;;;11.30;1.70;;;11.90;94.90;;;;;;5078866;28;20402;-80
2021/10/06 01:48:55;;;;;;;6.95;1.05;;;11.80;94.70;;;;;;5095525;28;20073;-79
2021/10/06 01:51:21;;;;;;;8.32;1.10;;;11.90;94.80;;;;;;5095584;28;20016;-80
2021/10/06 01:53:47;;;;;;;9.55;1.75;;;11.90;94.80;;;;;;5096798;28;20372;-76
2021/10/06 01:56:12;;;;;;;6.57;1.38;;;11.80;94.80;;;;;;5096788;28;20028;-82
2021/10/06 01:58:38;;;;;;;7.75;0.90;;;11.90;94.90;;;;;;5095641;28;20036;-80
2021/10/06 02:01:04;;;;;;;7.65;1.45;;;11.90;95.00;;;;;;5095469;28;20020;-79
2021/10/06 02:03:30;;;;;;;6.53;1.05;;;11.90;95.00;;;;;;5096436;28;20032;-79
2021/10/06 02:05:56;;;;;;;8.73;1.13;;;11.80;95.00;;;;;;5095180;28;20067;-82
2021/10/06 02:08:22;;;;;;;8.68;1.33;;;11.80;95.00;;;;;;5094924;28;20417;-81
2021/10/06 02:10:48;;;;;;;7.47;1.40;;;11.80;95.10;;;;;;5060801;28;20119;-80
2021/10/06 02:13:14;;;;;;;5.15;1.10;;;11.80;95.20;;;;;;5095156;28;20044;-79
2021/10/06 02:15:40;;;;;;;10.55;1.50;;;11.80;95.20;;;;;;5096255;28;20108;-82
2021/10/06 02:18:06;;;;;;;9.48;1.38;;;11.80;95.40;;;;;;5094956;28;20460;-81
2021/10/06 02:20:32;;;;;;;6.93;1.23;;;11.80;95.20;;;;;;5041877;28;20082;-80
2021/10/06 02:22:58;;;;;;;7.03;1.00;;;11.70;95.20;;;;;;5085664;28;20442;-76
2021/10/06 02:25:23;;;;;;;8.18;1.63;;;11.70;95.20;;;;;;5061093;28;20048;-75
2021/10/06 02:27:49;;;;;;;7.57;1.10;;;11.70;95.20;;;;;;5077024;28;20032;-76
2021/10/06 02:30:16;;;;;;;7.40;1.38;;;11.80;95.20;;;;;;5077659;28;20046;-75
2021/10/06 02:32:42;;;;;;;9.32;1.35;;;11.70;95.20;;;;;;5094784;28;20028;-81
2021/10/06 02:35:08;;;;;;;8.45;1.38;;;11.70;95.20;;;;;;5094642;28;20090;-81
2021/10/06 02:37:35;;;;;;;8.98;1.42;;;11.70;95.10;;;;;;5094532;28;20032;-79
2021/10/06 02:40:00;;;;;;;6.35;1.27;;;11.70;95.20;;;;;;5077762;28;20025;-79
2021/10/06 02:42:26;;;;;;;6.72;1.52;;;11.70;95.30;;;;;;5094701;28;20440;-76
2021/10/06 02:44:52;;;;;;;9.27;1.33;;;11.70;95.40;;;;;;5094326;28;20040;-76
2021/10/06 02:47:17;;;;;;;9.05;1.33;;;11.70;95.50;;;;;;5094309;28;20032;-77
2021/10/06 02:49:43;;;;;;;6.07;1.27;;;11.60;95.60;;;;;;5094727;28;20544;-79
2021/10/06 02:52:09;;;;;;;11.50;1.92;;;11.60;95.60;;;;;;5094156;28;20392;-81
2021/10/06 02:54:34;;;;;;;8.13;1.35;;;11.60;95.70;;;;;;5077462;28;20051;-81
2021/10/06 02:57:04;;;;;;;7.10;1.25;;;11.50;95.70;;;;;;5094165;28;20496;-81
2021/10/06 02:59:33;;;;;;;7.97;1.60;;;11.50;95.80;;;;;;5077804;28;20500;-81
2021/10/06 03:01:59;;;;;;;9.55;1.73;;;11.50;95.80;;;;;;5094184;28;20039;-82
2021/10/06 03:04:25;;;;;;;9.23;1.60;;;11.50;95.80;;;;;;5093986;28;20024;-80
2021/10/06 03:06:51;;;;;;;12.20;1.75;;;11.50;95.70;;;;;;5094333;28;20024;-81
2021/10/06 03:09:17;;;;;;;5.88;1.50;;;11.50;95.80;;;;;;5095305;28;20024;-76
2021/10/06 03:11:44;;;;;;;14.30;2.08;;;11.50;95.80;;;;;;5093914;28;20028;-77
2021/10/06 03:14:10;;;;;;;12.82;2.00;;;11.50;95.80;;;;;;5077366;28;20035;-80
2021/10/06 03:16:35;;;;;;;9.50;2.15;;;11.50;95.70;;;;;;5093837;28;20028;-78
2021/10/06 03:19:01;;;;;;;8.30;2.33;;;11.60;95.80;;;;;;5095018;28;20028;-80
2021/10/06 03:21:27;;;;;;;8.45;2.03;;;11.50;96.00;;;;;;5094028;28;20028;-76
2021/10/06 03:23:54;;;;;;;14.27;3.08;;;11.50;96.30;;;;;;5095061;28;20028;-77
2021/10/06 03:26:20;;;;;;;10.25;2.42;;;11.40;96.30;;;;;;5093394;28;20447;-77
2021/10/06 03:28:45;;;;;;;9.37;2.63;;;11.40;96.50;;;;;;5093882;28;20078;-76
2021/10/06 03:31:11;;;;;;;13.27;2.80;;;11.40;96.60;;;;;;5093476;28;20082;-77
2021/10/06 03:33:37;;;;;;;7.70;2.43;;;11.30;96.80;;;;;;5060029;28;20511;-76
2021/10/06 03:36:03;;;;;;;6.43;1.87;;;11.30;96.80;;;;;;5076747;28;20446;-75
2021/10/06 03:38:29;;;;;;;7.20;2.40;;;11.30;96.80;;;;;;5093564;28;20038;-79
2021/10/06 03:40:55;;;;;;;9.13;2.70;;;11.30;96.90;;;;;;5093449;28;20451;-79
2021/10/06 03:43:20;;;;;;;13.57;3.20;;;11.20;97.00;;;;;;5093524;28;20093;-80
2021/10/06 03:45:46;;;;;;;12.73;2.97;;;11.20;97.10;;;;;;5094468;28;20044;-75
2021/10/06 03:48:12;;;;;;;13.23;3.10;;;11.20;97.10;;;;;;5093280;28;20153;-77
2021/10/06 03:50:37;;;;;;;9.20;2.73;;;11.20;97.20;;;;;;5076197;28;20096;-79
2021/10/06 03:53:04;;;;;;;12.20;2.47;;;11.20;97.30;;;;;;5093059;28;20028;-76
2021/10/06 03:55:30;;;;;;;12.27;2.30;;;11.10;97.30;;;;;;5093180;28;20150;-76
2021/10/06 03:57:56;;;;;;;15.20;2.23;;;11.20;97.40;;;;;;5092958;28;20468;-76
2021/10/06 04:00:22;;;;;;;4.83;1.87;;;11.10;97.30;;;;;;5094069;28;20035;-76
2021/10/06 04:02:47;;;;;;;4.47;1.80;;;11.10;97.50;;;;;;5094229;28;20039;-80
2021/10/06 04:05:13;;;;;;;11.13;2.77;;;11.00;97.40;;;;;;5094259;28;20521;-76
2021/10/06 04:07:39;;;;;;;13.73;2.90;;;11.10;97.40;;;;;;5075966;28;20054;-75
2021/10/06 04:10:08;;;;;;;8.50;3.00;;;11.10;97.70;;;;;;5094418;28;20054;-76
2021/10/06 04:12:33;;;;;;;7.57;2.50;;;11.00;97.80;;;;;;5076256;28;20031;-74
2021/10/06 04:14:59;;;;;;;10.50;3.10;;;11.00;98.10;;;;;;5094017;28;20388;-76
2021/10/06 04:17:25;;;;;;;5.80;2.30;;;10.90;98.20;;;;;;5076274;28;20028;-77
2021/10/06 04:19:51;;;;;;;3.93;1.73;;;10.90;98.40;;;;;;5092514;28;20456;-74
2021/10/06 04:22:17;;;;;;;6.50;2.00;;;10.70;98.40;;;;;;5092302;28;20062;-73
2021/10/06 04:24:43;;;;;;;7.33;1.90;;;10.70;98.60;;;;;;5091834;28;20054;-74
2021/10/06 04:27:09;;;;;;;5.73;2.33;;;10.60;98.60;;;;;;5093439;28;20048;-71
2021/10/06 04:29:34;;;;;;;6.97;2.10;;;10.60;98.70;;;;;;5092449;28;20073;-73
2021/10/06 04:32:00;;;;;;;9.63;2.67;;;10.50;98.70;;;;;;5075594;28;20021;-73
2021/10/06 04:34:26;;;;;;;5.90;3.87;;;10.50;98.80;;;;;;5091759;28;20533;-73
2021/10/06 04:36:52;;;;;;;14.63;3.37;;;10.50;98.90;;;;;;5093345;28;20032;-72
2021/10/06 04:39:17;;;;;;;10.87;3.77;;;10.50;98.90;;;;;;5075905;28;20036;-81
2021/10/06 04:41:43;;;;;;;11.10;4.27;;;10.50;99.00;;;;;;5075650;28;20035;-79
2021/10/06 04:44:09;;;;;;;11.20;3.60;;;10.50;99.30;;;;;;5075599;28;20127;-77
2021/10/06 04:46:34;;;;;;;15.10;4.27;;;10.50;99.50;;;;;;5093705;28;20039;-80
2021/10/06 04:49:02;;;;;;;12.23;3.10;;;10.50;99.70;;;;;;5059195;28;20032;-78
2021/10/06 04:51:28;;;;;;;10.67;3.60;;;10.50;99.70;;;;;;5092630;28;20016;-79
2021/10/06 04:53:53;;;;;;;11.53;3.23;;;10.50;99.80;;;;;;5093067;28;20119;-78
2021/10/06 04:56:19;;;;;;;13.13;4.00;;;10.50;99.90;;;;;;5093840;28;20406;-81
2021/10/06 04:58:44;;;;;;;12.97;5.37;;;10.50;99.90;;;;;;5059041;28;20028;-80
2021/10/06 05:01:10;;;;;;;16.07;6.47;;;10.50;99.90;;;;;;5075701;28;20422;-78
2021/10/06 05:03:36;;;;;;;13.07;6.07;;;10.50;99.90;;;;;;5075875;28;20094;-80
2021/10/06 05:06:02;;;;;;;13.10;6.57;;;10.40;99.90;;;;;;5075455;28;20063;-81
2021/10/06 05:08:27;;;;;;;12.07;5.97;;;10.40;99.90;;;;;;5085327;28;20082;-79
2021/10/06 05:10:53;;;;;;;12.07;6.07;;;10.40;99.90;;;;;;5073033;28;20083;-78
2021/10/06 05:13:19;;;;;;;12.93;6.40;;;10.40;99.90;;;;;;5071626;28;20116;-81
2021/10/06 05:15:44;;;;;;;16.17;7.27;;;10.40;99.90;;;;;;5060696;28;20067;-78
2021/10/06 05:18:10;;;;;;;11.83;5.00;;;10.50;99.90;;;;;;5091887;28;20041;-78
2021/10/06 05:20:36;;;;;;;12.87;4.73;;;10.40;99.90;;;;;;5078525;28;20046;-77
2021/10/06 05:23:02;;;;;;;10.53;4.60;;;10.50;99.90;;;;;;5072765;28;20017;-79
2021/10/06 05:25:28;;;;;;;17.37;5.50;;;10.50;99.90;;;;;;5071295;28;20170;-78
2021/10/06 05:27:53;;;;;;;11.63;4.50;;;10.50;99.90;;;;;;5054715;28;20063;-77
2021/10/06 05:30:19;;;;;;;10.57;3.97;;;10.50;99.90;;;;;;5071719;28;20031;-77
2021/10/06 05:32:49;;;;;;;15.60;4.80;;;10.50;99.90;;;;;;5072935;28;20028;-79
2021/10/06 05:35:15;;;;;;;11.13;4.10;;;10.50;99.90;;;;;;5072041;28;20099;-80
2021/10/06 05:37:41;;;;;;;12.53;5.60;;;10.40;99.90;;;;;;5072766;28;20099;-79
2021/10/06 05:40:07;;;;;;;17.30;5.13;;;10.50;99.90;;;;;;5071971;28;20125;-78
2021/10/06 05:42:33;;;;;;;12.17;4.10;;;10.50;99.90;;;;;;5054986;28;20049;-76
2021/10/06 05:44:59;;;;;;;14.10;3.97;;;10.40;99.90;;;;;;5072276;28;20054;-80
2021/10/06 05:47:25;;;;;;;16.37;4.67;;;10.40;99.90;;;;;;5075201;28;20040;-79
2021/10/06 05:49:51;;;;;;;13.83;4.83;;;10.50;99.90;;;;;;5075436;28;20070;-81
2021/10/06 05:52:17;;;;;;;13.83;5.37;;;10.40;99.90;;;;;;5075032;28;20020;-81
2021/10/06 05:54:42;;;;;;;14.60;4.70;;;10.40;99.90;;;;;;5075050;28;20496;-82
2021/10/06 05:57:08;;;;;;;17.77;5.67;;;10.40;99.90;;;;;;5074923;28;20032;-79
2021/10/06 05:59:34;;;;;;;14.67;4.90;;;10.30;99.90;;;;;;5075797;28;20033;-80
2021/10/06 06:02:00;;;;;;;15.17;6.17;;;10.40;99.90;;;;;;5076018;28;20028;-79
2021/10/06 06:04:27;;;;;;;14.73;6.10;;;10.30;99.90;;;;;;5058160;28;20123;-77
2021/10/06 06:06:53;;;;;;;16.50;5.87;;;10.30;99.90;;;;;;5058421;28;20587;-76
2021/10/06 06:09:21;;;;;;;15.23;6.80;;;10.30;99.90;;;;;;5075940;28;20029;-78
2021/10/06 06:11:48;;;;;;;20.63;8.13;;;10.30;99.90;;;;;;5074702;28;20428;-81
2021/10/06 06:14:13;;;;;;;15.70;6.90;;;10.30;99.90;;;;;;5057996;28;20465;-75
2021/10/06 06:16:39;;;;;;;19.43;7.30;;;10.30;99.90;;;;;;5075978;28;20037;-78
2021/10/06 06:19:05;;;;;;;18.03;7.60;;;10.30;99.90;;;;;;5074367;28;20031;-75
2021/10/06 06:21:30;;;;;;;17.63;8.20;;;10.20;99.90;;;;;;5075624;28;20037;-77
2021/10/06 06:23:56;;;;;;;18.70;6.53;;;10.30;99.90;;;;;;5074420;28;20115;-75
2021/10/06 06:26:22;;;;;;;15.53;7.20;;;10.20;99.90;;;;;;5057443;28;20400;-76
2021/10/06 06:28:47;;;;;;;20.17;7.63;;;10.20;99.90;;;;;;5074478;28;20028;-76
2021/10/06 06:31:13;;;;;;;16.60;7.53;;;10.30;99.90;;;;;;5074359;28;20048;-79
2021/10/06 06:33:39;;;;;;;15.57;6.87;;;10.20;99.90;;;;;;5074073;28;20389;-80
2021/10/06 06:36:05;;;;;;;17.10;7.07;;;10.30;99.90;;;;;;5060477;28;20489;-78
2021/10/06 06:38:31;;;;;;;19.80;7.60;;;10.20;99.90;;;;;;5057496;28;20047;-79
2021/10/06 06:40:58;;;;;;;18.37;7.97;;;10.30;99.90;;;;;;5078788;28;20472;-79
2021/10/06 06:43:23;;;;;;;14.73;7.03;;;10.30;99.90;;;;;;5095498;28;20473;-79
2021/10/06 06:45:49;;;;;;;15.77;7.27;;;10.30;99.90;;;;;;5074200;28;20040;-81
2021/10/06 06:48:15;;;;;;;19.10;8.20;;;10.30;99.90;;;;;;5081497;28;20031;-79
2021/10/06 06:50:41;;;;;;;15.80;7.90;;;10.30;99.90;;;;;;5073775;28;20509;-81
2021/10/06 06:53:07;;;;;;;14.03;8.27;;;10.30;99.90;;;;;;5057025;28;20017;-78
2021/10/06 06:55:33;;;;;;;17.60;7.97;;;10.30;99.90;;;;;;5057165;28;20457;-81
2021/10/06 06:57:58;;;;;;;14.70;7.97;;;10.30;99.90;;;;;;5073308;28;20067;-79
2021/10/06 07:00:24;;;;;;;13.80;7.90;;;10.30;99.90;;;;;;5087868;28;20033;-81
2021/10/06 07:02:49;;;;;;;15.87;7.97;;;10.30;99.90;;;;;;5073551;28;20048;-80
2021/10/06 07:05:16;;;;;;;19.83;7.80;;;10.30;99.90;;;;;;5057269;28;20025;-78
2021/10/06 07:07:43;;;;;;;12.33;6.23;;;10.30;99.90;;;;;;5074785;28;20021;-78
2021/10/06 07:10:09;;;;;;;19.27;8.13;;;10.30;99.90;;;;;;5073733;28;20020;-78
2021/10/06 07:12:34;;;;;;;16.70;7.70;;;10.30;99.90;;;;;;5061359;28;20029;-81
2021/10/06 07:15:00;;;;;;;16.77;8.17;;;10.30;99.90;;;;;;5074993;28;20024;-80
2021/10/06 07:17:25;;;;;;;15.27;7.33;;;10.30;99.90;;;;;;5074674;28;20029;-79
2021/10/06 07:19:51;;;;;;;17.40;6.73;;;10.30;99.90;;;;;;5079665;28;20033;-77
2021/10/06 07:22:18;;;;;;;13.00;6.37;;;10.30;99.90;;;;;;5092071;28;20028;-80
2021/10/06 07:24:44;;;;;;;14.10;7.00;;;10.40;99.90;;;;;;5092878;28;20024;-79
2021/10/06 07:27:11;;;;;;;14.27;6.93;;;10.40;99.90;;;;;;5074095;28;20044;-79
2021/10/06 07:29:38;;;;;;;10.30;6.10;;;10.50;99.90;;;;;;5074464;28;20033;-78
2021/10/06 07:32:04;;;;;;;19.90;6.97;;;10.50;99.90;;;;;;5091598;28;20134;-79
2021/10/06 07:34:30;;;;;;;12.30;6.17;;;10.50;99.90;;;;;;5093218;28;20375;-80
2021/10/06 07:36:56;;;;;;;13.40;6.70;;;10.50;99.90;;;;;;5093198;28;20026;-82
2021/10/06 07:39:22;;;;;;;13.37;6.63;;;10.60;99.90;;;;;;5059679;28;20093;-79
2021/10/06 07:41:47;;;;;;;12.23;5.93;;;10.50;99.90;;;;;;5093118;28;20483;-78
2021/10/06 07:44:13;;;;;;;13.33;6.60;;;10.50;99.90;;;;;;5076653;28;20383;-80
2021/10/06 07:46:39;;;;;;;11.97;6.70;;;10.60;99.90;;;;;;5092801;28;20047;-78
2021/10/06 07:49:05;;;;;;;13.27;6.97;;;10.60;99.90;;;;;;5092928;28;20507;-81
2021/10/06 07:51:31;;;;;;;13.77;6.93;;;10.60;99.90;;;;;;5093015;28;20081;-78
2021/10/06 07:53:57;;;;;;;14.97;7.43;;;10.70;99.90;;;;;;5092887;28;20407;-79
2021/10/06 07:56:23;;;;;;;15.43;7.40;;;10.60;99.90;;;;;;5075918;28;20028;-79
2021/10/06 07:58:49;;;;;;;16.30;7.30;;;10.60;99.90;;;;;;5092880;28;20044;-79
2021/10/06 08:01:15;;;;;;;14.93;7.23;;;10.60;99.90;;;;;;5092866;28;20032;-79
2021/10/06 08:03:40;;;;;;;16.37;7.27;;;10.60;99.90;;;;;;5093253;28;20028;-77
2021/10/06 08:06:06;;;;;;;12.97;6.67;;;10.60;99.90;;;;;;5090707;28;20046;-81
2021/10/06 08:08:32;;;;;;;18.83;7.97;;;10.70;99.90;;;;;;5065787;28;20033;-83
2021/10/06 08:11:00;;;;;;;13.23;6.60;;;10.70;99.90;;;;;;5072535;28;20033;-79
2021/10/06 08:13:26;;;;;;;15.93;7.37;;;10.70;99.90;;;;;;5089486;28;20482;-76
2021/10/06 08:15:52;;;;;;;16.37;7.27;;;10.70;99.90;;;;;;5073731;28;20024;-78
2021/10/06 08:18:20;;;;;;;12.03;6.50;;;10.70;99.90;;;;;;5073727;28;20029;-78
2021/10/06 08:20:50;;;;;;;14.80;7.80;;;10.70;99.90;;;;;;5094059;28;20024;-80
2021/10/06 08:23:17;;;;;;;14.30;7.40;;;10.70;99.90;;;;;;5076196;28;20070;-81
2021/10/06 08:25:44;;;;;;;12.43;7.73;;;10.70;99.90;;;;;;5093459;28;20046;-78
2021/10/06 08:28:10;;;;;;;15.83;7.53;;;10.80;99.90;;;;;;5092838;28;20542;-79
2021/10/06 08:30:37;;;;;;;21.07;7.03;;;10.80;99.90;;;;;;5093793;28;20090;-81
2021/10/06 08:33:03;;;;;;;10.57;6.80;;;10.80;99.90;;;;;;5092801;28;20028;-79
2021/10/06 08:35:29;;;;;;;13.73;7.37;;;10.80;99.90;;;;;;5093660;28;20103;-79
2021/10/06 08:37:54;;;;;;;14.03;7.87;;;10.90;99.90;;;;;;5092453;28;20123;-81
2021/10/06 08:40:20;;;;;;;12.70;7.07;;;10.90;99.90;;;;;;5075749;28;20035;-80
2021/10/06 08:42:46;;;;;;;12.67;7.57;;;10.90;99.90;;;;;;5092557;28;20034;-81
2021/10/06 08:45:12;;;;;;;12.40;6.87;;;11.00;99.90;;;;;;5093742;28;20103;-78
2021/10/06 08:47:41;;;;;;;14.70;6.10;;;11.00;99.90;;;;;;5075572;28;20029;-80
2021/10/06 08:50:10;;;;;;;12.07;6.70;;;11.10;99.90;;;;;;5093529;28;20516;-79
2021/10/06 08:52:35;;;;;;;12.32;6.70;;;11.10;99.90;;;;;;5093589;28;20021;-79
2021/10/06 08:55:03;;;;;;;10.57;6.00;;;11.20;99.90;;;;;;5075264;28;20028;-79
2021/10/06 08:57:28;;;;;;;9.13;5.85;;;11.20;99.90;;;;;;5093558;28;20050;-80
2021/10/06 08:59:54;;;;;;;9.10;5.53;;;11.20;99.90;;;;;;5093444;28;20036;-80
2021/10/06 09:02:20;;;;;;;10.60;5.60;;;11.30;99.90;;;;;;5092141;28;20121;-80
2021/10/06 09:04:48;;;;;;;8.55;5.15;;;11.30;99.90;;;;;;5092244;28;20032;-79
2021/10/06 09:07:14;;;;;;;10.82;4.28;;;11.30;99.90;;;;;;5092196;28;20036;-80
2021/10/06 09:09:40;;;;;;;10.13;5.13;;;11.40;99.90;;;;;;5092056;28;20177;-79
2021/10/06 09:12:14;;;;;;;8.77;4.40;;;11.40;99.90;;;;;;5075085;28;20040;-79
2021/10/06 09:14:42;;;;;;;8.63;4.95;;;11.40;99.90;;;;;;5093241;28;20059;-80
2021/10/06 09:17:17;;;;;;;8.93;4.60;;;11.40;99.90;;;;;;5092204;28;20032;-79
2021/10/06 09:19:49;;;;;;;8.63;4.28;;;11.40;99.90;;;;;;5093348;28;20499;-82
2021/10/06 09:22:30;;;;;;;8.68;4.93;;;11.40;99.90;;;;;;5097366;28;20031;-79
2021/10/06 09:24:55;;;;;;;8.07;4.22;;;11.50;99.90;;;;;;5095735;28;20024;-79
2021/10/06 09:27:33;;;;;;;11.13;5.32;;;11.50;99.90;;;;;;5094451;28;20044;-79
2021/10/06 09:30:04;;;;;;;13.52;5.43;;;11.50;99.90;;;;;;5096140;28;20187;-82
2021/10/06 09:32:42;;;;;;;9.90;4.82;;;11.60;99.90;;;;;;5096862;28;20070;-80
2021/10/06 09:35:13;;;;;;;14.02;5.43;;;11.60;99.90;;;;;;5097072;28;20024;-77
2021/10/06 09:37:42;;;;;;;11.15;5.70;;;11.70;99.90;;;;;;5097129;28;20028;-79
2021/10/06 09:40:10;;;;;;;11.68;6.07;;;11.70;99.90;;;;;;5095504;28;20549;-82
2021/10/06 09:42:45;;;;;;;12.02;5.15;;;11.80;99.90;;;;;;5095623;28;20031;-82
2021/10/06 09:45:34;;;;;;;11.80;5.13;;;11.80;99.90;;;;;;5096724;28;20032;-82
2021/10/06 09:48:12;;;;;;;10.38;5.75;;;11.90;99.90;;;;;;5095586;28;20031;-82
2021/10/06 09:50:47;;;;;;;12.60;5.18;;;11.90;99.90;;;;;;5096994;28;20424;-80
2021/10/06 09:53:20;;;;;;;11.52;4.20;;;11.90;99.90;;;;;;5096501;28;20119;-80
2021/10/06 09:55:49;;;;;;;9.82;3.67;;;11.90;99.90;;;;;;5096427;28;20031;-82
2021/10/06 09:58:16;;;;;;;8.60;2.83;;;11.90;99.90;;;;;;5096140;28;20028;-77
2021/10/06 10:00:44;;;;;;;10.75;3.35;;;11.80;99.90;;;;;;5095221;28;20093;-77
2021/10/06 10:03:11;;;;;;;13.40;3.78;;;11.90;99.90;;;;;;5075768;28;20035;-75
2021/10/06 10:05:39;;;;;;;13.10;3.90;;;11.80;99.90;;;;;;5076356;28;20036;-75
2021/10/06 10:08:06;;;;;;;11.63;4.18;;;11.80;99.90;;;;;;5074500;28;20063;-77
2021/10/06 10:10:37;;;;;;;16.90;5.88;;;11.80;99.90;;;;;;5074498;28;20501;-76
2021/10/06 10:13:03;;;;;;;14.15;5.88;;;11.80;99.90;;;;;;5057805;28;20469;-76
2021/10/06 10:15:29;;;;;;;12.35;5.93;;;11.90;99.90;;;;;;5075630;28;20103;-75
2021/10/06 10:18:00;;;;;;;10.43;5.43;;;11.90;99.90;;;;;;5074546;28;20532;-74
2021/10/06 10:20:27;;;;;;;11.63;4.90;;;12.00;99.90;;;;;;5074306;28;20366;-73
2021/10/06 10:22:56;;;;;;;11.80;5.75;;;12.00;99.90;;;;;;5075238;28;20044;-74
2021/10/06 10:25:28;;;;;;;13.82;5.75;;;12.10;99.90;;;;;;5074074;28;20031;-73
2021/10/06 10:28:06;;;;;;;13.73;4.97;;;12.10;99.90;;;;;;5074517;28;20115;-76
2021/10/06 10:30:33;;;;;;;12.98;4.85;;;12.20;99.90;;;;;;5074079;28;20029;-75
2021/10/06 10:32:59;;;;;;;10.25;4.38;;;12.30;99.90;;;;;;5075041;28;20093;-75
2021/10/06 10:35:43;;;;;;;13.20;4.55;;;12.40;99.90;;;;;;5057662;28;20025;-76
2021/10/06 10:38:13;;;;;;;12.68;4.63;;;12.40;99.90;;;;;;5074090;28;20111;-73
2021/10/06 10:40:53;;;;;;;13.05;5.07;;;12.50;99.90;;;;;;5075383;28;20020;-75
2021/10/06 10:43:24;;;;;;;14.68;4.47;;;12.60;99.90;;;;;;5073723;28;20119;-74
2021/10/06 10:46:10;;;;;;;12.90;4.38;;;12.70;99.90;;;;;;5104723;28;20530;-73
2021/10/06 10:48:58;;;;;;;11.02;3.95;;;12.70;99.90;;;;;;5074129;28;20033;-75
2021/10/06 10:51:55;;;;;;;15.95;4.68;;;12.80;99.90;;;;;;5074213;28;20093;-74
2021/10/06 10:54:31;;;;;;;13.23;4.00;;;13.00;99.90;;;;;;5072709;28;20033;-73
2021/10/06 10:57:03;;;;;;;13.05;3.17;;;13.30;99.90;;;;;;5057273;28;20039;-75
2021/10/06 10:59:40;;;;;;;8.05;2.28;;;13.70;99.90;;;;;;5075116;28;20028;-75
2021/10/06 11:02:18;;;;;;;9.07;2.20;;;14.10;99.90;;;;;;5082294;28;20036;-76
2021/10/06 11:04:47;;;;;;;4.65;1.05;;;14.60;99.90;;;;;;5094324;28;20107;-75
2021/10/06 11:07:21;;;;;;;5.18;0.82;;;14.90;99.90;;;;;;5094945;28;20036;-75
2021/10/06 11:09:52;;;;;;;4.65;0.77;;;15.00;99.90;;;;;;5095076;28;20016;-75
2021/10/06 11:12:18;;;;;;;3.42;0.70;;;15.20;99.90;;;;;;5094072;28;20111;-77
2021/10/06 11:14:47;;;;;;;4.70;0.80;;;15.30;99.90;;;;;;5093887;28;20056;-75
2021/10/06 11:17:18;;;;;;;7.43;0.95;;;15.30;99.90;;;;;;5093846;28;20110;-75
2021/10/06 11:19:55;;;;;;;5.88;0.90;;;15.50;99.90;;;;;;5095257;28;20066;-75
2021/10/06 11:22:23;;;;;;;3.42;0.52;;;15.60;99.90;;;;;;5077005;28;20036;-77
2021/10/06 11:24:50;;;;;;;4.35;0.77;;;15.60;99.90;;;;;;5093635;28;20119;-76
2021/10/06 11:27:16;;;;;;;5.70;0.70;;;15.40;99.90;;;;;;5093421;28;20392;-76
2021/10/06 11:29:43;;;;;;;5.00;0.88;;;15.30;99.90;;;;;;5093391;28;20048;-76
2021/10/06 11:32:09;;;;;;;5.03;0.85;;;15.60;99.90;;;;;;5078570;28;20042;-76
2021/10/06 11:34:51;;;;;;;4.25;0.57;;;15.90;99.90;;;;;;5086593;28;20103;-76
2021/10/06 11:37:24;;;;;;;4.85;0.80;;;16.50;99.90;;;;;;5091755;28;20028;-80
2021/10/06 11:39:50;;;;;;;2.88;0.50;;;16.60;99.90;;;;;;5074604;28;20032;-83
2021/10/06 11:42:17;;;;;;;3.53;0.70;;;16.50;99.90;;;;;;5073212;28;20504;-81
2021/10/06 11:44:44;;;;;;;5.63;0.77;;;16.50;99.90;;;;;;5072387;28;20358;-81
2021/10/06 11:47:16;;;;;;;3.28;0.80;;;16.80;99.90;;;;;;5073631;28;20469;-80
2021/10/06 11:49:44;;;;;;;3.07;0.60;;;17.20;99.90;;;;;;5088383;28;20027;-81
2021/10/06 11:52:11;;;;;;;5.55;0.77;;;17.20;99.90;;;;;;5089864;28;20020;-81
2021/10/06 11:54:38;;;;;;;6.28;0.90;;;17.00;99.90;;;;;;5073955;28;20017;-82
2021/10/06 11:57:09;;;;;;;7.40;0.93;;;16.70;99.90;;;;;;5071485;28;20071;-80
2021/10/06 12:03:15;;;;;;;9.82;1.02;;;16.20;99.90;;;;;;5074500;28;20066;-82
2021/10/06 12:05:44;;;;;;;10.82;1.30;;;15.80;99.90;;;;;;5078195;28;20334;-80
2021/10/06 12:08:10;;;;;;;5.32;1.52;;;15.60;99.90;;;;;;5092893;28;20032;-81
2021/10/06 12:10:37;;;;;;;7.97;1.20;;;15.40;99.90;;;;;;5077418;28;20491;-82
2021/10/06 12:13:02;;;;;;;9.25;1.80;;;15.30;99.90;;;;;;5092862;28;20440;-80
2021/10/06 12:15:28;;;;;;;4.45;1.35;;;15.30;99.90;;;;;;5076816;28;20059;-81
2021/10/06 12:17:53;;;;;;;7.30;2.08;;;15.30;99.90;;;;;;5092923;28;20043;-82
2021/10/06 12:20:21;;;;;;;8.30;1.33;;;15.30;99.90;;;;;;5070460;28;20052;-81
2021/10/06 12:22:47;;;;;;;9.18;2.33;;;15.50;99.90;;;;;;5084900;28;20074;-82
2021/10/06 12:25:19;;;;;;;8.00;1.45;;;15.30;99.90;;;;;;5089114;28;20024;-80
2021/10/06 12:27:47;;;;;;;7.72;1.48;;;15.30;99.90;;;;;;5073198;28;20056;-81
2021/10/06 12:30:17;;;;;;;7.80;1.83;;;15.30;99.90;;;;;;5086152;28;20020;-80
2021/10/06 12:32:45;;;;;;;4.85;1.23;;;15.20;99.90;;;;;;5072239;28;20021;-81
2021/10/06 12:35:16;;;;;;;5.57;1.25;;;15.20;99.90;;;;;;5087015;28;20021;-80
2021/10/06 12:38:00;;;;;;;9.70;1.70;;;15.20;99.90;;;;;;5093849;28;20057;-81
2021/10/06 12:40:44;;;;;;;7.35;1.20;;;15.30;99.90;;;;;;5090696;28;20502;-80
2021/10/06 12:43:12;;;;;;;4.82;0.88;;;15.30;99.90;;;;;;5091494;28;20124;-81
2021/10/06 12:46:24;;;;;;;8.90;0.90;;;15.40;99.90;;;;;;5091106;28;20024;-81